createdAt,value
2018-08-03T00:00:36.574Z,60.70
2018-08-03T00:03:03.065Z,60.70
2018-08-03T00:05:29.550Z,60.70
2018-08-03T00:07:56.018Z,60.70
2018-08-03T00:10:22.440Z,60.70
2018-08-03T00:12:49.004Z,60.60
2018-08-03T00:15:15.604Z,61.30
2018-08-03T00:17:42.095Z,60.70
2018-08-03T00:20:08.556Z,60.70
2018-08-03T00:22:35.521Z,60.70
2018-08-03T00:25:01.984Z,60.60
2018-08-03T00:27:28.444Z,60.60
2018-08-03T00:29:54.958Z,60.60
2018-08-03T00:32:21.426Z,60.50
2018-08-03T00:34:48.051Z,60.50
2018-08-03T00:37:14.530Z,60.50
2018-08-03T00:39:40.968Z,60.50
2018-08-03T00:42:07.483Z,60.50
2018-08-03T00:44:33.954Z,60.60
2018-08-03T00:47:00.424Z,60.60
2018-08-03T00:49:27.402Z,61.00
2018-08-03T00:51:53.846Z,60.60
2018-08-03T00:54:20.286Z,60.50
2018-08-03T00:56:46.722Z,60.50
2018-08-03T00:59:13.168Z,60.40
2018-08-03T01:01:39.654Z,60.50
2018-08-03T01:04:06.115Z,60.50
2018-08-03T01:06:33.124Z,60.50
2018-08-03T01:08:59.690Z,60.40
2018-08-03T01:11:26.260Z,60.50
2018-08-03T01:13:52.798Z,60.40
2018-08-03T01:16:19.286Z,60.40
2018-08-03T01:18:45.740Z,60.40
2018-08-03T01:21:12.267Z,60.40
2018-08-03T01:23:38.766Z,60.40
2018-08-03T01:26:05.208Z,60.40
2018-08-03T01:28:31.657Z,60.40
2018-08-03T01:30:58.133Z,60.40
2018-08-03T01:33:24.618Z,60.30
2018-08-03T01:35:51.202Z,60.40
2018-08-03T01:38:17.714Z,60.30
2018-08-03T01:40:44.185Z,60.30
2018-08-03T01:43:10.700Z,60.30
2018-08-03T01:45:37.322Z,60.30
2018-08-03T01:48:03.813Z,60.30
2018-08-03T01:50:30.307Z,60.30
2018-08-03T01:52:56.852Z,60.30
2018-08-03T01:55:23.483Z,60.20
2018-08-03T01:57:49.978Z,60.20
2018-08-03T02:00:16.442Z,60.20
2018-08-03T02:02:42.903Z,60.20
2018-08-03T02:05:09.426Z,60.20
2018-08-03T02:07:35.978Z,60.10
2018-08-03T02:10:02.483Z,60.10
2018-08-03T02:12:28.935Z,60.10
2018-08-03T02:14:55.405Z,60.10
2018-08-03T02:17:21.851Z,60.10
2018-08-03T02:19:48.340Z,60.10
2018-08-03T02:22:14.826Z,60.10
2018-08-03T02:24:41.262Z,60.00
2018-08-03T02:27:08.286Z,60.10
2018-08-03T02:29:34.711Z,60.10
2018-08-03T02:32:01.164Z,60.00
2018-08-03T02:34:27.612Z,60.00
2018-08-03T02:36:54.190Z,60.10
2018-08-03T02:39:20.659Z,60.00
2018-08-03T02:41:47.143Z,60.00
2018-08-03T02:44:13.618Z,60.90
2018-08-03T02:46:40.095Z,60.00
2018-08-03T02:49:06.662Z,59.90
2018-08-03T02:51:33.320Z,59.90
2018-08-03T02:54:00.506Z,59.90
2018-08-03T02:56:27.009Z,59.90
2018-08-03T02:58:53.519Z,59.90
2018-08-03T03:01:20.509Z,59.90
2018-08-03T03:03:46.979Z,60.00
2018-08-03T03:06:13.517Z,59.90
2018-08-03T03:08:39.960Z,59.90
2018-08-03T03:11:06.449Z,59.90
2018-08-03T03:13:33.040Z,59.90
2018-08-03T03:18:26.467Z,59.90
2018-08-03T03:20:53.472Z,59.90
2018-08-03T03:23:19.912Z,59.80
2018-08-03T03:25:46.396Z,59.90
2018-08-03T03:28:12.858Z,59.80
2018-08-03T03:30:39.351Z,59.80
2018-08-03T03:33:05.832Z,59.90
2018-08-03T03:35:32.293Z,59.90
2018-08-03T03:37:58.772Z,59.80
2018-08-03T03:40:25.336Z,60.20
2018-08-03T03:42:52.333Z,59.90
2018-08-03T03:45:18.792Z,60.00
2018-08-03T03:47:45.351Z,60.10
2018-08-03T03:50:11.883Z,60.30
2018-08-03T03:52:38.351Z,60.00
2018-08-03T03:55:05.029Z,60.20
2018-08-03T03:57:31.515Z,60.20
2018-08-03T03:59:58.012Z,60.30
2018-08-03T04:02:24.473Z,60.30
2018-08-03T04:04:50.912Z,60.30
2018-08-03T04:09:44.399Z,60.40
2018-08-03T04:12:11.550Z,60.50
2018-08-03T04:14:38.035Z,60.40
2018-08-03T04:19:31.572Z,60.50
2018-08-03T04:21:58.058Z,60.60
2018-08-03T04:24:24.502Z,60.70
2018-08-03T04:26:50.936Z,60.70
2018-08-03T04:29:17.406Z,60.60
2018-08-03T04:31:43.988Z,60.60
2018-08-03T04:34:10.433Z,60.70
2018-08-03T04:36:36.942Z,60.50
2018-08-03T04:39:03.950Z,60.50
2018-08-03T04:41:30.396Z,60.40
2018-08-03T04:43:56.862Z,60.40
2018-08-03T04:46:23.312Z,60.30
2018-08-03T04:48:49.783Z,61.10
2018-08-03T04:51:16.340Z,60.30
2018-08-03T04:53:42.882Z,60.20
2018-08-03T04:56:09.321Z,60.10
2018-08-03T04:58:35.762Z,60.20
2018-08-03T05:01:02.233Z,60.20
2018-08-03T05:03:28.689Z,60.10
2018-08-03T05:05:55.152Z,60.10
2018-08-03T05:08:21.620Z,60.10
2018-08-03T05:10:48.118Z,60.00
2018-08-03T05:13:14.795Z,59.90
2018-08-03T05:15:41.261Z,60.00
2018-08-03T05:18:08.280Z,60.00
2018-08-03T05:20:34.776Z,59.90
2018-08-03T05:23:01.247Z,59.90
2018-08-03T05:25:27.667Z,59.90
2018-08-03T05:27:54.160Z,59.90
2018-08-03T05:30:20.635Z,59.90
2018-08-03T05:32:47.725Z,59.90
2018-08-03T05:35:14.212Z,59.90
2018-08-03T05:37:40.703Z,60.00
2018-08-03T05:40:07.146Z,59.80
2018-08-03T05:42:33.705Z,59.80
2018-08-03T05:45:00.411Z,59.80
2018-08-03T05:47:26.875Z,59.80
2018-08-03T05:50:03.451Z,59.80
2018-08-03T05:52:29.986Z,59.80
2018-08-03T05:54:58.919Z,59.70
2018-08-03T05:57:25.837Z,59.70
2018-08-03T05:59:52.379Z,60.30
2018-08-03T06:02:18.923Z,59.70
2018-08-03T06:04:45.404Z,59.60
2018-08-03T06:07:11.879Z,59.60
2018-08-03T06:09:38.409Z,59.60
2018-08-03T06:12:04.969Z,59.70
2018-08-03T06:14:31.467Z,59.60
2018-08-03T06:16:57.955Z,59.50
2018-08-03T06:19:24.405Z,59.60
2018-08-03T06:21:50.885Z,59.50
2018-08-03T06:24:17.391Z,59.50
2018-08-03T06:26:43.876Z,59.50
2018-08-03T06:29:10.353Z,59.40
2018-08-03T06:31:36.866Z,59.40
2018-08-03T06:34:03.335Z,59.40
2018-08-03T06:36:30.460Z,59.40
2018-08-03T06:38:56.943Z,59.40
2018-08-03T06:41:23.423Z,59.40
2018-08-03T06:43:49.883Z,59.40
2018-08-03T06:46:16.373Z,59.40
2018-08-03T06:48:42.823Z,59.40
2018-08-03T06:51:09.337Z,59.40
2018-08-03T06:53:35.783Z,59.40
2018-08-03T06:56:02.259Z,59.50
2018-08-03T06:58:28.871Z,59.40
2018-08-03T07:00:55.369Z,59.50
2018-08-03T07:03:21.811Z,59.40
2018-08-03T07:05:48.295Z,59.40
2018-08-03T07:08:14.841Z,59.40
2018-08-03T07:10:41.341Z,59.40
2018-08-03T07:13:07.809Z,59.40
2018-08-03T07:15:34.313Z,59.30
2018-08-03T07:18:00.794Z,59.20
2018-08-03T07:20:27.377Z,59.30
2018-08-03T07:22:53.805Z,59.30
2018-08-03T07:25:20.254Z,59.30
2018-08-03T07:27:46.745Z,59.20
2018-08-03T07:30:13.211Z,59.20
2018-08-03T07:32:39.715Z,59.20
2018-08-03T07:35:06.227Z,59.20
2018-08-03T07:37:32.801Z,59.20
2018-08-03T07:39:59.299Z,59.20
2018-08-03T07:42:25.839Z,59.10
2018-08-03T07:44:52.319Z,59.10
2018-08-03T07:47:18.937Z,59.10
2018-08-03T07:49:45.403Z,59.10
2018-08-03T07:52:11.936Z,59.10
2018-08-03T07:54:38.536Z,59.10
2018-08-03T07:57:05.026Z,59.00
2018-08-03T08:01:58.641Z,59.10
2018-08-03T08:04:25.123Z,59.00
2018-08-03T08:06:51.611Z,59.00
2018-08-03T08:09:18.082Z,58.90
2018-08-03T08:14:11.522Z,59.00
2018-08-03T08:16:37.978Z,59.00
2018-08-03T08:19:04.721Z,58.90
2018-08-03T08:21:31.200Z,58.90
2018-08-03T08:23:57.668Z,58.90
2018-08-03T08:26:24.156Z,58.90
2018-08-03T08:29:04.496Z,58.80
2018-08-03T08:31:30.952Z,58.80
2018-08-03T08:33:57.435Z,58.80
2018-08-03T08:36:23.918Z,58.80
2018-08-03T08:38:57.854Z,58.80
2018-08-03T08:41:24.314Z,58.80
2018-08-03T08:43:51.431Z,58.80
2018-08-03T08:46:17.890Z,58.80
2018-08-03T08:48:53.844Z,58.80
2018-08-03T08:51:20.320Z,58.80
2018-08-03T08:53:46.778Z,58.80
2018-08-03T08:56:13.418Z,58.70
2018-08-03T08:58:39.870Z,58.70
2018-08-03T09:01:06.477Z,58.70
2018-08-03T09:03:32.910Z,58.70
2018-08-03T09:06:00.014Z,58.80
2018-08-03T09:08:26.472Z,58.80
2018-08-03T09:10:52.975Z,59.40
2018-08-03T09:13:19.444Z,58.70
2018-08-03T09:15:45.891Z,58.70
2018-08-03T09:18:12.365Z,58.70
2018-08-03T09:20:39.108Z,58.70
2018-08-03T09:23:05.570Z,58.80
2018-08-03T09:25:32.009Z,58.70
2018-08-03T09:27:58.601Z,58.70
2018-08-03T09:30:25.093Z,58.60
2018-08-03T09:32:51.652Z,58.60
2018-08-03T09:35:18.238Z,59.20
2018-08-03T09:37:44.694Z,58.50
2018-08-03T09:40:11.216Z,59.10
2018-08-03T09:42:37.715Z,58.60
2018-08-03T09:45:04.178Z,58.50
2018-08-03T09:47:30.944Z,58.50
2018-08-03T09:49:57.446Z,58.50
2018-08-03T09:52:23.886Z,58.40
2018-08-03T09:54:50.328Z,58.40
2018-08-03T09:57:16.777Z,58.50
2018-08-03T09:59:43.235Z,58.50
2018-08-03T10:02:09.716Z,58.50
2018-08-03T10:04:36.699Z,59.00
2018-08-03T10:07:03.146Z,58.40
2018-08-03T10:09:29.612Z,58.50
2018-08-03T10:14:23.075Z,58.50
2018-08-03T10:16:49.559Z,59.10
2018-08-03T10:19:16.051Z,58.60
2018-08-03T10:21:43.139Z,58.60
2018-08-03T10:24:09.669Z,58.70
2018-08-03T10:26:36.119Z,58.60
2018-08-03T10:29:02.763Z,58.60
2018-08-03T10:31:29.263Z,58.60
2018-08-03T10:33:55.909Z,58.40
2018-08-03T10:36:22.609Z,58.50
2018-08-03T10:38:49.477Z,58.50
2018-08-03T10:41:16.015Z,58.50
2018-08-03T10:43:42.488Z,58.50
2018-08-03T10:46:09.050Z,58.40
2018-08-03T10:51:02.922Z,58.60
2018-08-03T10:53:29.473Z,58.60
2018-08-03T10:55:55.928Z,58.60
2018-08-03T10:58:22.661Z,58.70
2018-08-03T11:00:49.135Z,58.60
2018-08-03T11:03:15.601Z,58.60
2018-08-03T11:05:42.069Z,58.70
2018-08-03T11:08:08.529Z,58.70
2018-08-03T11:10:34.981Z,58.70
2018-08-03T11:13:02.109Z,58.60
2018-08-03T11:15:28.647Z,58.60
2018-08-03T11:17:55.135Z,58.70
2018-08-03T11:20:21.620Z,58.80
2018-08-03T11:22:48.063Z,58.80
2018-08-03T11:25:14.547Z,58.80
2018-08-03T11:27:41.046Z,58.80
2018-08-03T11:30:07.874Z,58.90
2018-08-03T11:32:34.615Z,58.90
2018-08-03T11:35:01.133Z,58.70
2018-08-03T11:37:27.601Z,58.60
2018-08-03T11:39:54.059Z,58.60
2018-08-03T11:42:20.559Z,58.40
2018-08-03T11:44:47.062Z,58.50
2018-08-03T11:47:13.591Z,58.40
2018-08-03T11:49:40.074Z,58.40
2018-08-03T11:52:06.849Z,58.40
2018-08-03T11:54:33.353Z,58.40
2018-08-03T11:56:59.851Z,58.40
2018-08-03T11:59:26.375Z,58.30
2018-08-03T12:01:53.553Z,58.30
2018-08-03T12:04:20.534Z,58.40
2018-08-03T12:06:47.629Z,58.30
2018-08-03T12:09:14.086Z,58.30
2018-08-03T12:11:40.564Z,58.30
2018-08-03T12:14:07.011Z,58.30
2018-08-03T12:16:33.481Z,58.30
2018-08-03T12:18:59.959Z,58.20
2018-08-03T12:21:26.412Z,58.20
2018-08-03T12:23:53.040Z,58.20
2018-08-03T12:26:19.412Z,58.20
2018-08-03T12:31:25.229Z,58.40
2018-08-03T12:33:51.698Z,58.20
2018-08-03T12:36:18.146Z,58.20
2018-08-03T12:38:44.642Z,58.10
2018-08-03T12:41:11.111Z,57.10
2018-08-03T12:43:37.585Z,58.30
2018-08-03T12:46:04.107Z,58.10
2018-08-03T12:48:30.665Z,58.20
2018-08-03T12:50:57.198Z,58.20
2018-08-03T12:53:23.657Z,58.10
2018-08-03T12:55:50.776Z,58.20
2018-08-03T12:58:17.259Z,58.20
2018-08-03T13:00:43.732Z,58.20
2018-08-03T13:03:10.205Z,58.10
2018-08-03T13:05:36.648Z,58.10
2018-08-03T13:08:03.219Z,58.10
2018-08-03T13:10:29.569Z,58.10
2018-08-03T13:12:56.065Z,58.20
2018-08-03T13:15:22.531Z,58.20
2018-08-03T13:17:48.999Z,58.10
2018-08-03T13:20:15.983Z,58.20
2018-08-03T13:22:42.423Z,58.10
2018-08-03T13:25:08.851Z,58.20
2018-08-03T13:27:35.308Z,58.20
2018-08-03T13:30:02.791Z,58.10
2018-08-03T13:32:29.312Z,58.00
2018-08-03T13:34:55.788Z,58.10
2018-08-03T13:37:22.308Z,58.00
2018-08-03T13:39:48.777Z,58.00
2018-08-03T13:42:15.282Z,58.00
2018-08-03T13:44:41.780Z,58.00
2018-08-03T13:47:08.302Z,58.00
2018-08-03T13:49:34.883Z,58.10
2018-08-03T13:52:01.361Z,58.10
2018-08-03T13:54:27.815Z,58.10
2018-08-03T13:56:54.273Z,58.00
2018-08-03T13:59:20.760Z,58.00
2018-08-03T14:01:47.253Z,58.10
2018-08-03T14:04:13.744Z,58.00
2018-08-03T14:06:40.214Z,58.10
2018-08-03T14:09:06.734Z,58.10
2018-08-03T14:11:33.188Z,58.10
2018-08-03T14:13:59.686Z,58.10
2018-08-03T14:16:26.169Z,58.10
2018-08-03T14:19:05.428Z,58.00
2018-08-03T14:21:31.886Z,58.20
2018-08-03T14:23:58.350Z,58.10
2018-08-03T14:26:24.777Z,58.00
2018-08-03T14:28:51.251Z,58.00
2018-08-03T14:31:17.754Z,58.00
2018-08-03T14:33:44.234Z,58.00
2018-08-03T14:36:10.714Z,58.00
2018-08-03T14:38:37.383Z,58.00
2018-08-03T14:41:03.965Z,58.10
2018-08-03T14:45:58.353Z,58.00
2018-08-03T14:48:24.939Z,58.00
2018-08-03T14:50:51.440Z,58.00
2018-08-03T14:53:18.410Z,57.90
2018-08-03T14:55:44.886Z,58.00
2018-08-03T14:58:11.364Z,57.90
2018-08-03T15:00:37.840Z,57.90
2018-08-03T15:03:04.548Z,58.00
2018-08-03T15:05:31.037Z,58.00
2018-08-03T15:07:57.585Z,58.00
2018-08-03T15:10:24.007Z,57.90
2018-08-03T15:12:50.466Z,58.00
2018-08-03T15:15:16.972Z,58.00
2018-08-03T15:17:43.459Z,58.00
2018-08-03T15:20:10.406Z,57.90
2018-08-03T15:22:36.915Z,57.90
2018-08-03T15:25:03.785Z,57.90
2018-08-03T15:27:30.267Z,58.00
2018-08-03T15:29:56.731Z,57.90
2018-08-03T15:32:23.253Z,57.90
2018-08-03T15:34:49.719Z,57.90
2018-08-03T15:37:16.495Z,58.00
2018-08-03T15:39:43.050Z,58.00
2018-08-03T15:42:09.529Z,58.50
2018-08-03T15:44:36.001Z,58.00
2018-08-03T15:47:02.471Z,57.90
2018-08-03T15:49:28.945Z,57.90
2018-08-03T15:51:55.384Z,57.90
2018-08-03T15:54:21.853Z,57.90
2018-08-03T15:56:48.340Z,58.50
2018-08-03T15:59:14.774Z,57.90
2018-08-03T16:01:41.225Z,57.90
2018-08-03T16:04:07.706Z,57.90
2018-08-03T16:06:34.153Z,57.90
2018-08-03T16:09:00.614Z,57.90
2018-08-03T16:11:27.070Z,57.90
2018-08-03T16:13:53.591Z,57.90
2018-08-03T16:16:20.115Z,57.90
2018-08-03T16:18:46.630Z,57.90
2018-08-03T16:21:13.084Z,57.90
2018-08-03T16:23:39.562Z,57.40
2018-08-03T16:26:06.506Z,57.90
2018-08-03T16:28:32.968Z,57.90
2018-08-03T16:30:59.445Z,57.90
2018-08-03T16:33:25.950Z,57.90
2018-08-03T16:35:52.402Z,57.90
2018-08-03T16:38:18.934Z,57.90
2018-08-03T16:40:45.419Z,57.90
2018-08-03T16:43:11.902Z,57.90
2018-08-03T16:45:38.407Z,57.90
2018-08-03T16:48:04.890Z,57.90
2018-08-03T16:50:31.392Z,57.90
2018-08-03T16:52:57.976Z,57.90
2018-08-03T16:55:24.550Z,57.90
2018-08-03T16:57:51.063Z,57.90
2018-08-03T17:00:18.311Z,57.90
2018-08-03T17:02:44.766Z,57.90
2018-08-03T17:05:11.271Z,57.90
2018-08-03T17:07:37.717Z,57.90
2018-08-03T17:10:04.828Z,57.90
2018-08-03T17:12:31.299Z,57.90
2018-08-03T17:14:57.732Z,57.90
2018-08-03T17:17:24.295Z,57.80
2018-08-03T17:19:50.742Z,57.80
2018-08-03T17:22:17.237Z,57.80
2018-08-03T17:24:43.716Z,57.80
2018-08-03T17:27:10.326Z,57.80
2018-08-03T17:29:36.789Z,57.80
2018-08-03T17:32:03.296Z,57.80
2018-08-03T17:34:29.940Z,57.80
2018-08-03T17:36:56.468Z,57.80
2018-08-03T17:39:22.908Z,57.80
2018-08-03T17:41:49.411Z,57.80
2018-08-03T17:44:16.042Z,57.70
2018-08-03T17:46:43.133Z,57.70
2018-08-03T17:49:09.664Z,57.70
2018-08-03T17:51:36.155Z,57.70
2018-08-03T17:54:02.654Z,57.70
2018-08-03T17:56:29.142Z,57.70
2018-08-03T17:58:55.642Z,57.70
2018-08-03T18:01:22.203Z,57.40
2018-08-03T18:03:48.756Z,57.70
2018-08-03T18:06:15.267Z,57.70
2018-08-03T18:08:42.300Z,57.70
2018-08-03T18:11:08.762Z,57.70
2018-08-03T18:13:35.271Z,57.70
2018-08-03T18:16:01.754Z,57.70
2018-08-03T18:18:28.249Z,57.80
2018-08-03T18:20:54.731Z,57.80
2018-08-03T18:23:21.203Z,57.80
2018-08-03T18:25:47.755Z,57.90
2018-08-03T18:28:14.253Z,57.90
2018-08-03T18:30:40.733Z,58.00
2018-08-03T18:33:07.484Z,57.90
2018-08-03T18:35:34.034Z,58.00
2018-08-03T18:38:00.485Z,57.90
2018-08-03T18:40:27.660Z,58.00
2018-08-03T18:42:54.105Z,58.00
2018-08-03T18:45:20.709Z,58.00
2018-08-03T18:47:47.143Z,58.00
2018-08-03T18:50:13.621Z,58.00
2018-08-03T18:52:40.143Z,58.00
2018-08-03T18:55:06.671Z,58.00
2018-08-03T18:57:33.253Z,58.00
2018-08-03T18:59:59.732Z,58.00
2018-08-03T19:02:26.231Z,58.10
2018-08-03T19:04:52.718Z,58.10
2018-08-03T19:07:19.193Z,58.10
2018-08-03T19:09:45.656Z,58.10
2018-08-03T19:12:12.135Z,58.10
2018-08-03T19:14:38.597Z,58.10
2018-08-03T19:17:05.104Z,58.10
2018-08-03T19:19:31.511Z,58.10
2018-08-03T19:21:58.318Z,58.10
2018-08-03T19:24:24.781Z,58.20
2018-08-03T19:26:51.252Z,58.10
2018-08-03T19:29:18.380Z,58.20
2018-08-03T19:31:44.849Z,58.20
2018-08-03T19:34:11.476Z,58.10
2018-08-03T19:36:37.962Z,58.10
2018-08-03T19:39:04.572Z,58.20
2018-08-03T19:41:31.029Z,57.80
2018-08-03T19:43:57.495Z,58.20
2018-08-03T19:46:23.991Z,58.10
2018-08-03T19:48:50.468Z,58.10
2018-08-03T19:51:16.926Z,58.10
2018-08-03T19:53:43.406Z,58.10
2018-08-03T19:56:10.800Z,58.10
2018-08-03T19:58:37.818Z,58.10
2018-08-03T20:01:04.908Z,58.10
2018-08-03T20:03:31.420Z,58.10
2018-08-03T20:05:58.290Z,58.10
2018-08-03T20:08:24.829Z,58.10
2018-08-03T20:10:51.367Z,58.20
2018-08-03T20:13:17.911Z,58.10
2018-08-03T20:18:11.474Z,58.10
2018-08-03T20:20:37.950Z,58.10
2018-08-03T20:23:04.425Z,58.10
2018-08-03T20:25:30.922Z,58.10
2018-08-03T20:27:57.398Z,58.10
2018-08-03T20:30:23.870Z,58.10
2018-08-03T20:32:50.341Z,58.10
2018-08-03T20:35:16.852Z,58.20
2018-08-03T20:37:43.808Z,58.10
2018-08-03T20:40:10.298Z,58.10
2018-08-03T20:42:36.780Z,58.10
2018-08-03T20:45:03.256Z,58.10
2018-08-03T20:47:29.744Z,58.70
2018-08-03T20:52:31.018Z,58.10
2018-08-03T20:54:57.515Z,58.20
2018-08-03T20:57:24.068Z,58.10
2018-08-03T20:59:50.576Z,58.20
2018-08-03T21:02:17.708Z,58.10
2018-08-03T21:04:44.413Z,58.10
2018-08-03T21:07:10.892Z,58.10
2018-08-03T21:09:37.424Z,58.10
2018-08-03T21:12:03.900Z,58.10
2018-08-03T21:14:30.376Z,58.20
2018-08-03T21:16:56.867Z,58.20
2018-08-03T21:19:23.969Z,58.10
2018-08-03T21:21:50.469Z,58.10
2018-08-03T21:24:16.964Z,58.20
2018-08-03T21:26:43.433Z,58.20
2018-08-03T21:29:10.040Z,58.20
2018-08-03T21:31:36.508Z,58.20
2018-08-03T21:34:02.963Z,58.20
2018-08-03T21:36:29.435Z,58.20
2018-08-03T21:38:55.943Z,58.20
2018-08-03T21:41:22.747Z,58.20
2018-08-03T21:43:49.333Z,58.10
2018-08-03T21:46:15.837Z,58.20
2018-08-03T21:48:42.304Z,58.20
2018-08-03T21:51:08.767Z,58.20
2018-08-03T21:53:35.923Z,58.80
2018-08-03T21:56:02.375Z,58.20
2018-08-03T21:58:28.817Z,58.20
2018-08-03T22:00:55.283Z,58.20
2018-08-03T22:03:21.728Z,58.20
2018-08-03T22:05:48.193Z,58.20
2018-08-03T22:08:14.673Z,58.20
2018-08-03T22:10:41.209Z,58.20
2018-08-03T22:13:07.709Z,58.20
2018-08-03T22:15:34.183Z,58.20
2018-08-03T22:18:00.678Z,58.20
2018-08-03T22:20:27.613Z,58.20
2018-08-03T22:22:54.075Z,58.20
2018-08-03T22:25:20.569Z,58.20
2018-08-03T22:27:47.246Z,58.20
2018-08-03T22:30:13.811Z,58.20
2018-08-03T22:32:40.338Z,58.20
2018-08-03T22:35:06.794Z,58.20
2018-08-03T22:37:33.278Z,58.20
2018-08-03T22:39:59.829Z,58.20
2018-08-03T22:42:26.328Z,58.30
2018-08-03T22:44:52.954Z,58.30
2018-08-03T22:47:19.490Z,58.20
2018-08-03T22:49:46.012Z,58.20
2018-08-03T22:52:12.443Z,58.20
2018-08-03T22:54:38.914Z,58.20
2018-08-03T22:57:06.024Z,58.20
2018-08-03T22:59:32.461Z,58.20
2018-08-03T23:01:58.900Z,58.20
2018-08-03T23:04:25.392Z,58.20
2018-08-03T23:06:52.080Z,58.20
2018-08-03T23:09:18.560Z,58.30
2018-08-03T23:11:45.037Z,58.20
2018-08-03T23:16:38.497Z,58.30
2018-08-03T23:21:31.932Z,58.20
2018-08-03T23:23:58.385Z,58.20
2018-08-03T23:26:24.838Z,58.30
2018-08-03T23:28:51.988Z,58.20
2018-08-03T23:31:19.703Z,58.20
2018-08-03T23:33:47.598Z,58.20
2018-08-03T23:36:14.070Z,58.20
2018-08-03T23:38:40.560Z,58.20
2018-08-03T23:41:07.048Z,58.20
2018-08-03T23:43:33.532Z,58.90
2018-08-03T23:46:00.010Z,58.20
2018-08-03T23:48:26.503Z,58.20
2018-08-03T23:50:52.981Z,58.30
2018-08-03T23:53:19.424Z,58.90
2018-08-03T23:55:45.911Z,58.30
2018-08-03T23:58:12.368Z,58.30
